createdAt,value
2017-11-18T00:00:01.407Z,10.10
2017-11-18T00:01:01.401Z,10.50
2017-11-18T00:02:01.392Z,10.00
2017-11-18T00:03:01.383Z,10.60
2017-11-18T00:04:01.376Z,10.00
2017-11-18T00:05:01.379Z,11.00
2017-11-18T00:06:01.358Z,11.60
2017-11-18T00:07:01.353Z,10.30
2017-11-18T00:08:01.345Z,10.90
2017-11-18T00:09:01.338Z,11.00
2017-11-18T00:10:01.329Z,10.50
2017-11-18T00:11:01.321Z,10.40
2017-11-18T00:12:01.312Z,10.50
2017-11-18T00:13:01.304Z,10.60
2017-11-18T00:14:01.296Z,10.80
2017-11-18T00:15:01.282Z,10.50
2017-11-18T00:16:01.274Z,11.80
2017-11-18T00:17:01.266Z,10.90
2017-11-18T00:18:01.257Z,11.50
2017-11-18T00:19:01.249Z,11.20
2017-11-18T00:20:01.241Z,11.20
2017-11-18T00:21:01.231Z,10.60
2017-11-18T00:22:01.225Z,11.00
2017-11-18T00:23:01.219Z,10.60
2017-11-18T00:24:01.211Z,10.80
2017-11-18T00:25:01.211Z,10.30
2017-11-18T00:26:01.193Z,10.50
2017-11-18T00:27:01.184Z,10.50
2017-11-18T00:28:01.178Z,10.10
2017-11-18T00:29:01.168Z,10.70
2017-11-18T00:30:01.159Z,10.80
2017-11-18T00:31:01.148Z,11.20
2017-11-18T00:32:01.139Z,10.60
2017-11-18T00:33:01.130Z,11.40
2017-11-18T00:34:01.134Z,11.20
2017-11-18T00:35:01.121Z,11.00
2017-11-18T00:36:01.110Z,11.40
2017-11-18T00:37:01.101Z,10.80
2017-11-18T00:38:01.093Z,11.10
2017-11-18T00:39:01.087Z,10.40
2017-11-18T00:40:01.072Z,11.40
2017-11-18T00:41:01.062Z,10.90
2017-11-18T00:42:01.054Z,10.70
2017-11-18T00:43:01.045Z,11.40
2017-11-18T00:44:01.038Z,10.90
2017-11-18T00:45:01.030Z,11.00
2017-11-18T00:46:01.020Z,11.30
2017-11-18T00:47:01.017Z,10.40
2017-11-18T00:48:01.008Z,10.60
2017-11-18T00:49:00.997Z,11.50
2017-11-18T00:50:00.990Z,11.40
2017-11-18T00:51:00.981Z,10.60
2017-11-18T00:52:00.973Z,11.10
2017-11-18T00:53:00.965Z,11.30
2017-11-18T00:54:00.955Z,11.30
2017-11-18T00:55:00.942Z,11.10
2017-11-18T00:56:00.935Z,11.30
2017-11-18T00:57:00.925Z,10.80
2017-11-18T00:58:00.916Z,11.30
2017-11-18T00:59:00.907Z,11.20
2017-11-18T01:00:00.899Z,10.90
2017-11-18T01:01:00.890Z,10.90
2017-11-18T01:02:00.880Z,10.60
2017-11-18T01:03:00.876Z,11.50
2017-11-18T01:04:00.866Z,11.30
2017-11-18T01:05:00.859Z,10.40
2017-11-18T01:06:00.849Z,12.20
2017-11-18T01:07:00.839Z,10.20
2017-11-18T01:08:00.829Z,11.60
2017-11-18T01:09:00.822Z,11.30
2017-11-18T01:10:00.812Z,10.80
2017-11-18T01:11:00.804Z,11.30
2017-11-18T01:12:00.789Z,12.10
2017-11-18T01:13:00.782Z,10.30
2017-11-18T01:14:00.772Z,10.80
2017-11-18T01:15:00.763Z,10.80
2017-11-18T01:16:00.755Z,10.70
2017-11-18T01:17:00.746Z,10.90
2017-11-18T01:18:00.736Z,11.00
2017-11-18T01:19:00.732Z,11.10
2017-11-18T01:20:00.724Z,10.70
2017-11-18T01:21:00.714Z,10.80
2017-11-18T01:22:00.705Z,10.00
2017-11-18T01:23:00.696Z,11.20
2017-11-18T01:24:00.686Z,10.70
2017-11-18T01:25:00.679Z,11.00
2017-11-18T01:26:00.669Z,10.10
2017-11-18T01:27:00.656Z,11.30
2017-11-18T01:28:00.646Z,10.60
2017-11-18T01:29:00.639Z,11.00
2017-11-18T01:30:00.630Z,10.80
2017-11-18T01:31:00.645Z,11.10
2017-11-18T01:32:00.616Z,11.30
2017-11-18T01:33:00.602Z,10.60
2017-11-18T01:34:00.592Z,10.60
2017-11-18T01:35:00.588Z,10.30
2017-11-18T01:36:00.580Z,10.50
2017-11-18T01:37:00.570Z,11.20
2017-11-18T01:38:00.563Z,11.10
2017-11-18T01:39:00.549Z,11.00
2017-11-18T01:40:00.540Z,9.90
2017-11-18T01:41:00.540Z,10.60
2017-11-18T01:42:00.522Z,10.50
2017-11-18T01:43:00.517Z,11.00
2017-11-18T01:44:00.509Z,10.10
2017-11-18T01:45:00.507Z,10.00
2017-11-18T01:46:00.491Z,10.80
2017-11-18T01:47:00.482Z,11.10
2017-11-18T01:48:00.473Z,10.80
2017-11-18T01:49:00.465Z,10.50
2017-11-18T01:50:00.456Z,11.30
2017-11-18T01:51:00.449Z,11.10
2017-11-18T01:52:00.434Z,11.20
2017-11-18T01:53:00.424Z,12.00
2017-11-18T01:54:00.415Z,11.20
2017-11-18T01:55:00.408Z,10.60
2017-11-18T01:56:00.398Z,10.90
2017-11-18T01:57:00.389Z,11.00
2017-11-18T01:58:00.380Z,11.20
2017-11-18T01:59:00.376Z,10.50
2017-11-18T02:00:00.366Z,10.70
2017-11-18T02:01:00.357Z,11.10
2017-11-18T02:02:00.348Z,10.80
2017-11-18T02:03:00.339Z,11.00
2017-11-18T02:04:00.331Z,10.90
2017-11-18T02:05:00.322Z,11.40
2017-11-18T02:06:00.314Z,11.10
2017-11-18T02:07:00.299Z,11.40
2017-11-18T02:08:00.290Z,11.60
2017-11-18T02:09:00.284Z,11.20
2017-11-18T02:10:00.273Z,10.90
2017-11-18T02:11:00.264Z,10.80
2017-11-18T02:12:00.255Z,12.00
2017-11-18T02:13:00.246Z,11.20
2017-11-18T02:14:00.239Z,11.60
2017-11-18T02:15:00.236Z,11.40
2017-11-18T02:16:00.223Z,12.40
2017-11-18T02:17:00.215Z,10.90
2017-11-18T02:18:00.205Z,11.80
2017-11-18T02:19:00.197Z,11.70
2017-11-18T02:20:00.189Z,11.30
2017-11-18T02:21:00.179Z,11.40
2017-11-18T02:22:00.170Z,10.90
2017-11-18T02:23:00.158Z,11.90
2017-11-18T02:24:00.156Z,11.30
2017-11-18T02:25:00.140Z,11.20
2017-11-18T02:26:00.129Z,11.80
2017-11-18T02:27:00.121Z,11.50
2017-11-18T02:28:00.112Z,10.90
2017-11-18T02:29:00.104Z,10.60
2017-11-18T02:30:00.095Z,11.30
2017-11-18T02:31:00.089Z,11.00
2017-11-18T02:32:00.081Z,10.80
2017-11-18T02:33:00.071Z,11.20
2017-11-18T02:34:00.067Z,11.40
2017-11-18T02:35:00.053Z,11.10
2017-11-18T02:36:00.046Z,10.80
2017-11-18T02:37:00.036Z,11.20
2017-11-18T02:38:00.040Z,11.30
2017-11-18T02:39:00.019Z,11.60
2017-11-18T02:40:00.006Z,11.50
2017-11-18T02:40:59.999Z,10.40
2017-11-18T02:41:59.985Z,11.30
2017-11-18T02:42:59.980Z,10.80
2017-11-18T02:43:59.972Z,11.10
2017-11-18T02:44:59.958Z,10.90
2017-11-18T02:45:59.949Z,11.40
2017-11-18T02:46:59.945Z,10.60
2017-11-18T02:47:59.936Z,10.50
2017-11-18T02:48:59.926Z,11.60
2017-11-18T02:49:59.916Z,11.60
2017-11-18T02:50:59.917Z,10.90
2017-11-18T02:51:59.900Z,11.30
2017-11-18T02:52:59.892Z,11.30
2017-11-18T02:53:59.882Z,11.60
2017-11-18T02:54:59.868Z,11.00
2017-11-18T02:55:59.859Z,11.30
2017-11-18T02:56:59.872Z,11.30
2017-11-18T02:57:59.848Z,11.40
2017-11-18T02:58:59.832Z,10.30
2017-11-18T02:59:59.821Z,11.60
2017-11-18T03:00:59.813Z,11.00
2017-11-18T03:01:59.802Z,12.00
2017-11-18T03:02:59.811Z,11.70
2017-11-18T03:03:59.789Z,11.50
2017-11-18T03:04:59.782Z,11.40
2017-11-18T03:05:59.770Z,12.30
2017-11-18T03:06:59.761Z,11.20
2017-11-18T03:07:59.752Z,11.10
2017-11-18T03:08:59.743Z,11.20
2017-11-18T03:09:59.734Z,12.00
2017-11-18T03:10:59.720Z,11.90
2017-11-18T03:11:59.710Z,11.70
2017-11-18T03:12:59.702Z,12.70
2017-11-18T03:13:59.691Z,11.40
2017-11-18T03:14:59.682Z,11.60
2017-11-18T03:15:59.674Z,11.20
2017-11-18T03:16:59.664Z,11.20
2017-11-18T03:17:59.664Z,12.20
2017-11-18T03:18:59.650Z,11.70
2017-11-18T03:19:59.642Z,11.80
2017-11-18T03:20:59.632Z,11.50
2017-11-18T03:21:59.621Z,12.30
2017-11-18T03:22:59.613Z,11.20
2017-11-18T03:23:59.602Z,11.90
2017-11-18T03:24:59.594Z,11.50
2017-11-18T03:25:59.585Z,11.40
2017-11-18T03:26:59.573Z,12.10
2017-11-18T03:27:59.563Z,12.00
2017-11-18T03:28:59.552Z,11.80
2017-11-18T03:29:59.542Z,11.90
2017-11-18T03:30:59.546Z,11.70
2017-11-18T03:31:59.525Z,12.00
2017-11-18T03:32:59.516Z,12.40
2017-11-18T03:33:59.506Z,11.60
2017-11-18T03:34:59.501Z,12.00
2017-11-18T03:35:59.493Z,12.20
2017-11-18T03:36:59.489Z,11.30
2017-11-18T03:37:59.474Z,11.90
2017-11-18T03:38:59.464Z,11.50
2017-11-18T03:39:59.454Z,11.50
2017-11-18T03:40:59.446Z,11.50
2017-11-18T03:41:59.436Z,12.10
2017-11-18T03:42:59.422Z,12.00
2017-11-18T03:43:59.420Z,11.90
2017-11-18T03:44:59.405Z,11.50
2017-11-18T03:45:59.396Z,11.40
2017-11-18T03:46:59.391Z,11.50
2017-11-18T03:47:59.409Z,11.80
2017-11-18T03:48:59.376Z,12.80
2017-11-18T03:49:59.363Z,12.40
2017-11-18T03:50:59.349Z,12.70
2017-11-18T03:51:59.341Z,12.80
2017-11-18T03:52:59.331Z,12.40
2017-11-18T03:53:59.322Z,12.60
2017-11-18T03:54:59.313Z,12.20
2017-11-18T03:55:59.303Z,12.90
2017-11-18T03:56:59.295Z,12.30
2017-11-18T03:57:59.283Z,12.00
2017-11-18T03:58:59.281Z,12.80
2017-11-18T03:59:59.270Z,12.80
2017-11-18T04:00:59.262Z,12.50
2017-11-18T04:01:59.252Z,12.70
2017-11-18T04:02:59.241Z,12.20
2017-11-18T04:03:59.233Z,11.70
2017-11-18T04:04:59.225Z,12.80
2017-11-18T04:05:59.214Z,12.40
2017-11-18T04:06:59.200Z,12.90
2017-11-18T04:07:59.191Z,13.20
2017-11-18T04:08:59.183Z,11.90
2017-11-18T04:09:59.172Z,11.80
2017-11-18T04:10:59.162Z,12.20
2017-11-18T04:11:59.154Z,12.50
2017-11-18T04:12:59.154Z,13.00
2017-11-18T04:13:59.135Z,12.20
2017-11-18T04:14:59.129Z,12.20
2017-11-18T04:15:59.122Z,12.60
2017-11-18T04:16:59.112Z,12.00
2017-11-18T04:17:59.104Z,12.30
2017-11-18T04:18:59.093Z,12.20
2017-11-18T04:19:59.085Z,12.20
2017-11-18T04:20:59.077Z,13.10
2017-11-18T04:21:59.066Z,12.60
2017-11-18T04:22:59.053Z,11.60
2017-11-18T04:23:59.044Z,12.40
2017-11-18T04:24:59.036Z,12.60
2017-11-18T04:25:59.026Z,12.50
2017-11-18T04:26:59.016Z,12.40
2017-11-18T04:27:59.009Z,12.00
2017-11-18T04:28:58.998Z,13.00
2017-11-18T04:29:58.990Z,12.30
2017-11-18T04:30:58.986Z,12.30
2017-11-18T04:31:58.975Z,12.00
2017-11-18T04:32:58.968Z,12.70
2017-11-18T04:33:58.957Z,12.20
2017-11-18T04:34:58.949Z,12.30
2017-11-18T04:35:58.940Z,11.50
2017-11-18T04:36:58.933Z,11.80
2017-11-18T04:37:58.921Z,11.60
2017-11-18T04:38:58.910Z,11.50
2017-11-18T04:39:58.900Z,11.70
2017-11-18T04:40:58.892Z,11.30
2017-11-18T04:41:58.882Z,12.40
2017-11-18T04:42:58.875Z,12.40
2017-11-18T04:43:58.866Z,11.60
2017-11-18T04:44:58.857Z,11.80
2017-11-18T04:45:58.846Z,12.20
2017-11-18T04:46:58.844Z,12.10
2017-11-18T04:47:58.834Z,12.30
2017-11-18T04:48:58.825Z,11.60
2017-11-18T04:49:58.815Z,12.30
2017-11-18T04:50:58.804Z,11.20
2017-11-18T04:51:58.794Z,12.10
2017-11-18T04:52:58.786Z,11.60
2017-11-18T04:53:58.776Z,11.20
2017-11-18T04:54:58.774Z,11.40
2017-11-18T04:55:58.764Z,11.20
2017-11-18T04:56:58.759Z,12.30
2017-11-18T04:57:58.746Z,11.20
2017-11-18T04:58:58.737Z,11.00
2017-11-18T04:59:58.728Z,11.30
2017-11-18T05:00:58.720Z,10.90
2017-11-18T05:01:58.713Z,11.50
2017-11-18T05:02:58.706Z,11.50
2017-11-18T05:03:58.690Z,11.40
2017-11-18T05:04:58.682Z,10.80
2017-11-18T05:05:58.672Z,11.00
2017-11-18T05:06:58.665Z,10.40
2017-11-18T05:07:58.660Z,10.60
2017-11-18T05:08:58.648Z,11.10
2017-11-18T05:09:58.638Z,10.80
2017-11-18T05:10:58.634Z,10.00
2017-11-18T05:11:58.626Z,10.40
2017-11-18T05:12:58.617Z,10.80
2017-11-18T05:13:58.607Z,10.30
2017-11-18T05:14:58.599Z,10.40
2017-11-18T05:15:58.591Z,10.50
2017-11-18T05:16:58.583Z,10.60
2017-11-18T05:17:58.574Z,10.60
2017-11-18T05:18:58.560Z,10.10
2017-11-18T05:19:58.559Z,10.20
2017-11-18T05:20:58.545Z,10.10
2017-11-18T05:21:58.536Z,10.30
2017-11-18T05:22:58.527Z,10.30
2017-11-18T05:23:58.518Z,10.10
2017-11-18T05:24:58.511Z,10.20
2017-11-18T05:25:58.502Z,10.20
2017-11-18T05:26:58.498Z,10.20
2017-11-18T05:27:58.489Z,10.40
2017-11-18T05:28:58.523Z,10.60
2017-11-18T05:29:58.472Z,10.50
2017-11-18T05:30:58.463Z,10.10
2017-11-18T05:31:58.461Z,10.00
2017-11-18T05:32:58.447Z,9.90
2017-11-18T05:33:58.442Z,10.10
2017-11-18T05:34:58.426Z,10.20
2017-11-18T05:35:58.417Z,10.40
2017-11-18T05:36:58.408Z,10.30
2017-11-18T05:37:58.400Z,10.20
2017-11-18T05:38:58.391Z,10.30
2017-11-18T05:39:58.383Z,10.50
2017-11-18T05:40:58.375Z,10.60
2017-11-18T05:41:58.368Z,11.30
2017-11-18T05:42:58.362Z,10.60
2017-11-18T05:43:58.355Z,10.80
2017-11-18T05:44:58.346Z,10.40
2017-11-18T05:45:58.335Z,10.90
2017-11-18T05:46:58.329Z,10.60
2017-11-18T05:47:58.325Z,10.60
2017-11-18T05:48:58.312Z,11.40
2017-11-18T05:49:58.303Z,10.80
2017-11-18T05:50:58.290Z,10.30
2017-11-18T05:51:58.282Z,10.80
2017-11-18T05:52:58.273Z,11.10
2017-11-18T05:53:58.263Z,10.30
2017-11-18T05:54:58.260Z,10.20
2017-11-18T05:55:58.252Z,10.00
2017-11-18T05:56:58.243Z,11.00
2017-11-18T05:57:58.233Z,10.30
2017-11-18T05:58:58.221Z,11.00
2017-11-18T05:59:58.214Z,10.50
2017-11-18T06:00:58.205Z,10.70
2017-11-18T06:01:58.195Z,10.80
2017-11-18T06:02:58.187Z,11.40
2017-11-18T06:03:58.179Z,11.40
2017-11-18T06:04:58.171Z,10.60
2017-11-18T06:05:58.162Z,10.50
2017-11-18T06:06:58.156Z,10.70
2017-11-18T06:07:58.148Z,10.60
2017-11-18T06:08:58.141Z,11.00
2017-11-18T06:09:58.131Z,11.10
2017-11-18T06:10:58.124Z,10.10
2017-11-18T06:11:58.118Z,10.30
2017-11-18T06:12:58.108Z,10.60
2017-11-18T06:13:58.097Z,9.90
2017-11-18T06:14:58.086Z,10.10
2017-11-18T06:15:58.077Z,10.70
2017-11-18T06:16:58.070Z,10.70
2017-11-18T06:17:58.059Z,9.60
2017-11-18T06:18:58.051Z,10.20
2017-11-18T06:19:58.044Z,9.30
2017-11-18T06:20:58.036Z,9.40
2017-11-18T06:21:58.025Z,9.70
2017-11-18T06:22:58.021Z,9.30
2017-11-18T06:23:58.014Z,8.80
2017-11-18T06:24:58.005Z,9.50
2017-11-18T06:25:57.997Z,9.20
2017-11-18T06:26:57.988Z,9.00
2017-11-18T06:27:57.981Z,9.00
2017-11-18T06:28:57.972Z,9.30
2017-11-18T06:29:57.963Z,9.60
2017-11-18T06:30:57.950Z,9.50
2017-11-18T06:31:57.942Z,9.80
2017-11-18T06:32:57.935Z,9.40
2017-11-18T06:33:57.926Z,9.50
2017-11-18T06:34:57.918Z,9.30
2017-11-18T06:35:57.909Z,9.70
2017-11-18T06:36:57.901Z,9.60
2017-11-18T06:37:57.891Z,9.40
2017-11-18T06:38:57.897Z,9.60
2017-11-18T06:39:57.880Z,9.20
2017-11-18T06:40:57.873Z,9.20
2017-11-18T06:41:57.861Z,9.60
2017-11-18T06:42:57.856Z,9.30
2017-11-18T06:43:57.846Z,9.20
2017-11-18T06:44:57.837Z,9.00
2017-11-18T06:45:57.829Z,8.90
2017-11-18T06:46:57.827Z,9.50
2017-11-18T06:47:57.807Z,8.90
2017-11-18T06:48:57.804Z,9.00
2017-11-18T06:49:57.794Z,8.90
2017-11-18T06:50:57.782Z,9.50
2017-11-18T06:51:57.775Z,9.40
2017-11-18T06:52:57.766Z,9.20
2017-11-18T06:53:57.757Z,8.90
2017-11-18T06:54:57.753Z,8.50
2017-11-18T06:55:57.746Z,9.30
2017-11-18T06:56:57.738Z,8.30
2017-11-18T06:57:57.728Z,8.10
2017-11-18T06:58:57.715Z,9.30
2017-11-18T06:59:57.707Z,8.80
2017-11-18T07:00:57.700Z,9.70
2017-11-18T07:01:57.690Z,9.20
2017-11-18T07:02:57.687Z,8.40
2017-11-18T07:03:57.679Z,8.60
2017-11-18T07:04:57.670Z,8.70
2017-11-18T07:05:57.661Z,8.30
2017-11-18T07:06:57.653Z,8.90
2017-11-18T07:07:57.645Z,9.30
2017-11-18T07:08:57.637Z,8.90
2017-11-18T07:09:57.628Z,9.30
2017-11-18T07:10:57.614Z,9.10
2017-11-18T07:11:57.608Z,8.30
2017-11-18T07:12:57.600Z,8.40
2017-11-18T07:13:57.591Z,8.80
2017-11-18T07:14:57.584Z,9.20
2017-11-18T07:15:57.574Z,9.10
2017-11-18T07:16:57.566Z,8.60
2017-11-18T07:17:57.556Z,8.70
2017-11-18T07:18:57.553Z,8.50
2017-11-18T07:19:57.545Z,9.20
2017-11-18T07:20:57.537Z,9.50
2017-11-18T07:21:57.528Z,8.90
2017-11-18T07:22:57.520Z,8.40
2017-11-18T07:23:57.515Z,8.50
2017-11-18T07:24:57.505Z,8.80
2017-11-18T07:25:57.494Z,8.60
2017-11-18T07:26:57.483Z,8.70
2017-11-18T07:27:57.476Z,8.30
2017-11-18T07:28:57.468Z,8.40
2017-11-18T07:29:57.458Z,9.50
2017-11-18T07:30:57.450Z,9.10
2017-11-18T07:31:57.441Z,9.00
2017-11-18T07:32:57.435Z,9.70
2017-11-18T07:33:57.424Z,8.50
2017-11-18T07:34:57.421Z,8.60
2017-11-18T07:35:57.413Z,9.30
2017-11-18T07:36:57.405Z,8.70
2017-11-18T07:37:57.400Z,8.90
2017-11-18T07:38:57.420Z,9.10
2017-11-18T07:39:57.379Z,8.90
2017-11-18T07:40:57.376Z,8.60
2017-11-18T07:41:57.363Z,9.60
2017-11-18T07:42:57.350Z,8.40
2017-11-18T07:43:57.346Z,9.40
2017-11-18T07:44:57.334Z,8.20
2017-11-18T07:45:57.346Z,8.90
2017-11-18T07:46:57.318Z,8.80
2017-11-18T07:47:57.310Z,8.70
2017-11-18T07:48:57.303Z,8.90
2017-11-18T07:49:57.293Z,8.90
2017-11-18T07:50:57.291Z,9.40
2017-11-18T07:51:57.281Z,8.90
2017-11-18T07:52:57.274Z,8.70
2017-11-18T07:53:57.265Z,8.90
2017-11-18T07:54:57.257Z,8.70
2017-11-18T07:55:57.249Z,9.20
2017-11-18T07:56:57.247Z,8.80
2017-11-18T07:57:57.233Z,8.40
2017-11-18T07:58:57.255Z,8.40
2017-11-18T07:59:57.211Z,8.30
2017-11-18T08:00:57.204Z,8.70
2017-11-18T08:01:57.195Z,8.80
2017-11-18T08:02:57.193Z,8.60
2017-11-18T08:03:57.184Z,9.20
2017-11-18T08:04:57.174Z,8.80
2017-11-18T08:05:57.167Z,9.50
2017-11-18T08:06:57.155Z,8.50
2017-11-18T08:07:57.154Z,8.80
2017-11-18T08:08:57.141Z,9.10
2017-11-18T08:09:57.129Z,9.10
2017-11-18T08:10:57.122Z,8.70
2017-11-18T08:11:57.115Z,8.70
2017-11-18T08:12:57.113Z,8.50
2017-11-18T08:13:57.100Z,8.60
2017-11-18T08:14:57.094Z,8.90
2017-11-18T08:15:57.086Z,8.90
2017-11-18T08:16:57.083Z,8.70
2017-11-18T08:17:57.070Z,8.70
2017-11-18T08:18:57.061Z,8.90
2017-11-18T08:19:57.053Z,9.50
2017-11-18T08:20:57.045Z,8.90
2017-11-18T08:21:57.038Z,8.60
2017-11-18T08:22:57.025Z,9.30
2017-11-18T08:23:57.021Z,8.60
2017-11-18T08:24:57.010Z,8.90
2017-11-18T08:25:57.005Z,9.30
2017-11-18T08:26:56.993Z,9.90
2017-11-18T08:27:56.984Z,9.20
2017-11-18T08:28:56.978Z,9.90
2017-11-18T08:29:56.970Z,9.40
2017-11-18T08:30:56.966Z,9.40
2017-11-18T08:31:56.957Z,9.50
2017-11-18T08:32:56.950Z,10.70
2017-11-18T08:33:56.943Z,10.00
2017-11-18T08:34:56.934Z,10.20
2017-11-18T08:35:56.925Z,9.50
2017-11-18T08:36:56.918Z,9.70
2017-11-18T08:37:56.910Z,10.10
2017-11-18T08:38:56.897Z,9.50
2017-11-18T08:39:56.890Z,9.40
2017-11-18T08:40:56.881Z,10.60
2017-11-18T08:41:56.873Z,9.90
2017-11-18T08:42:56.864Z,10.00
2017-11-18T08:43:56.860Z,9.90
2017-11-18T08:44:56.850Z,9.60
2017-11-18T08:45:56.843Z,9.60
2017-11-18T08:46:56.838Z,9.90
2017-11-18T08:47:56.837Z,10.40
2017-11-18T08:48:56.827Z,10.30
2017-11-18T08:49:56.813Z,9.60
2017-11-18T08:50:56.805Z,10.50
2017-11-18T08:51:56.799Z,10.00
2017-11-18T08:52:56.792Z,9.80
2017-11-18T08:53:56.783Z,10.80
2017-11-18T08:54:56.770Z,10.00
2017-11-18T08:55:56.764Z,9.90
2017-11-18T08:56:56.768Z,10.70
2017-11-18T08:57:56.746Z,9.60
2017-11-18T08:58:56.739Z,10.10
2017-11-18T08:59:56.735Z,10.50
2017-11-18T09:00:56.724Z,10.40
2017-11-18T09:01:56.715Z,10.60
2017-11-18T09:02:56.720Z,10.90
2017-11-18T09:03:56.705Z,11.30
2017-11-18T09:04:56.696Z,10.60
2017-11-18T09:05:56.689Z,11.10
2017-11-18T09:06:56.678Z,10.70
2017-11-18T09:07:56.670Z,10.70
2017-11-18T09:08:56.662Z,10.70
2017-11-18T09:09:56.655Z,11.50
2017-11-18T09:10:56.650Z,11.20
2017-11-18T09:11:56.642Z,10.80
2017-11-18T09:12:56.635Z,11.40
2017-11-18T09:13:56.627Z,10.90
2017-11-18T09:14:56.619Z,10.90
2017-11-18T09:15:56.612Z,10.60
2017-11-18T09:16:56.605Z,10.90
2017-11-18T09:17:56.595Z,10.90
2017-11-18T09:18:56.590Z,11.40
2017-11-18T09:19:56.577Z,11.60
2017-11-18T09:20:56.569Z,11.40
2017-11-18T09:21:56.560Z,11.60
2017-11-18T09:22:56.552Z,11.40
2017-11-18T09:23:56.546Z,12.30
2017-11-18T09:24:56.536Z,12.70
2017-11-18T09:25:56.529Z,11.80
2017-11-18T09:26:56.526Z,10.90
2017-11-18T09:27:56.518Z,12.20
2017-11-18T09:28:56.509Z,11.50
2017-11-18T09:29:56.503Z,12.10
2017-11-18T09:30:56.495Z,12.30
2017-11-18T09:31:56.516Z,12.20
2017-11-18T09:32:56.480Z,12.50
2017-11-18T09:33:56.471Z,12.80
2017-11-18T09:34:56.460Z,12.40
2017-11-18T09:35:56.452Z,13.60
2017-11-18T09:36:56.470Z,13.00
2017-11-18T09:37:56.436Z,12.60
2017-11-18T09:38:56.427Z,13.10
2017-11-18T09:39:56.421Z,12.40
2017-11-18T09:40:56.414Z,13.50
2017-11-18T09:41:56.404Z,13.30
2017-11-18T09:42:56.402Z,13.20
2017-11-18T09:43:56.395Z,13.20
2017-11-18T09:44:56.388Z,13.40
2017-11-18T09:45:56.379Z,13.00
2017-11-18T09:46:56.371Z,13.70
2017-11-18T09:47:56.364Z,13.60
2017-11-18T09:48:56.356Z,14.00
2017-11-18T09:49:56.349Z,13.80
2017-11-18T09:50:56.336Z,13.80
2017-11-18T09:51:56.327Z,15.20
2017-11-18T09:52:56.322Z,13.80
2017-11-18T09:53:56.312Z,13.40
2017-11-18T09:54:56.305Z,13.40
2017-11-18T09:55:56.299Z,13.00
2017-11-18T09:56:56.292Z,13.30
2017-11-18T09:57:56.281Z,13.90
2017-11-18T09:58:56.277Z,13.20
2017-11-18T09:59:56.272Z,13.50
2017-11-18T10:00:56.264Z,13.30
2017-11-18T10:01:56.256Z,13.90
2017-11-18T10:02:56.249Z,13.40
2017-11-18T10:03:56.242Z,13.40
2017-11-18T10:04:56.234Z,13.30
2017-11-18T10:05:56.225Z,12.50
2017-11-18T10:06:56.215Z,12.70
2017-11-18T10:07:56.208Z,13.10
2017-11-18T10:08:56.200Z,12.90
2017-11-18T10:09:56.195Z,12.80
2017-11-18T10:10:56.189Z,13.30
2017-11-18T10:11:56.180Z,13.00
2017-11-18T10:12:56.173Z,12.10
2017-11-18T10:13:56.166Z,12.70
2017-11-18T10:14:56.158Z,12.90
2017-11-18T10:15:56.147Z,12.50
2017-11-18T10:16:56.140Z,12.50
2017-11-18T10:17:56.132Z,13.10
2017-11-18T10:18:56.123Z,12.10
2017-11-18T10:19:56.118Z,12.60
2017-11-18T10:20:56.109Z,12.70
2017-11-18T10:21:56.101Z,12.60
2017-11-18T10:22:56.098Z,11.70
2017-11-18T10:23:56.091Z,12.20
2017-11-18T10:24:56.084Z,12.80
2017-11-18T10:25:56.081Z,12.40
2017-11-18T10:26:56.072Z,11.50
2017-11-18T10:27:56.063Z,12.10
2017-11-18T10:28:56.059Z,11.50
2017-11-18T10:29:56.047Z,12.10
2017-11-18T10:30:56.036Z,11.20
2017-11-18T10:31:56.029Z,12.50
2017-11-18T10:32:56.029Z,12.30
2017-11-18T10:33:56.014Z,12.50
2017-11-18T10:34:56.005Z,12.00
2017-11-18T10:35:56.000Z,12.30
2017-11-18T10:36:55.993Z,11.40
2017-11-18T10:37:55.986Z,11.90
2017-11-18T10:38:55.982Z,11.80
2017-11-18T10:39:55.974Z,12.60
2017-11-18T10:40:55.969Z,11.60
2017-11-18T10:41:55.961Z,12.50
2017-11-18T10:42:55.953Z,11.20
2017-11-18T10:43:55.946Z,12.10
2017-11-18T10:44:55.940Z,11.30
2017-11-18T10:45:55.932Z,11.40
2017-11-18T10:46:55.927Z,11.40
2017-11-18T10:47:55.914Z,11.30
2017-11-18T10:48:55.907Z,10.90
2017-11-18T10:49:55.898Z,11.50
2017-11-18T10:50:55.896Z,10.70
2017-11-18T10:51:55.886Z,11.00
2017-11-18T10:52:55.878Z,11.00
2017-11-18T10:53:55.871Z,10.40
2017-11-18T10:54:55.869Z,10.70
2017-11-18T10:55:55.862Z,11.20
2017-11-18T10:56:55.855Z,11.60
2017-11-18T10:57:55.849Z,11.10
2017-11-18T10:58:55.841Z,11.00
2017-11-18T10:59:55.836Z,10.50
2017-11-18T11:00:55.829Z,11.00
2017-11-18T11:01:55.820Z,11.10
2017-11-18T11:02:55.809Z,11.10
2017-11-18T11:03:55.802Z,11.90
2017-11-18T11:04:55.797Z,11.00
2017-11-18T11:05:55.790Z,10.50
2017-11-18T11:06:55.782Z,11.40
2017-11-18T11:07:55.796Z,10.90
2017-11-18T11:08:55.769Z,10.70
2017-11-18T11:09:55.762Z,11.10
2017-11-18T11:10:55.758Z,11.60
2017-11-18T11:11:55.753Z,10.90
2017-11-18T11:12:55.744Z,11.40
2017-11-18T11:13:55.737Z,10.40
2017-11-18T11:14:55.733Z,11.20
2017-11-18T11:15:55.727Z,10.30
2017-11-18T11:16:55.720Z,10.10
2017-11-18T11:17:55.712Z,10.50
2017-11-18T11:18:55.700Z,10.60
2017-11-18T11:19:55.692Z,10.20
2017-11-18T11:20:55.687Z,10.20
2017-11-18T11:21:55.681Z,9.90
2017-11-18T11:22:55.671Z,10.80
2017-11-18T11:23:55.670Z,11.00
2017-11-18T11:24:55.660Z,11.50
2017-11-18T11:25:55.651Z,10.30
2017-11-18T11:26:55.651Z,10.70
2017-11-18T11:27:55.644Z,10.80
2017-11-18T11:28:55.636Z,10.90
2017-11-18T11:29:55.628Z,10.40
2017-11-18T11:30:55.622Z,10.10
2017-11-18T11:31:55.615Z,10.90
2017-11-18T11:32:55.609Z,11.80
2017-11-18T11:33:55.600Z,10.40
2017-11-18T11:34:55.592Z,10.60
2017-11-18T11:35:55.585Z,10.70
2017-11-18T11:36:55.579Z,11.20
2017-11-18T11:37:55.570Z,10.70
2017-11-18T11:38:55.565Z,10.80
2017-11-18T11:39:55.558Z,11.00
2017-11-18T11:40:55.552Z,10.70
2017-11-18T11:41:55.544Z,11.60
2017-11-18T11:42:55.543Z,11.10
2017-11-18T11:43:55.535Z,10.40
2017-11-18T11:44:55.531Z,11.80
2017-11-18T11:45:55.522Z,10.90
2017-11-18T11:46:55.516Z,10.80
2017-11-18T11:47:55.508Z,11.10
2017-11-18T11:48:55.502Z,11.40
2017-11-18T11:49:55.496Z,10.30
2017-11-18T11:50:55.492Z,10.70
2017-11-18T11:51:55.479Z,10.50
2017-11-18T11:52:55.473Z,10.50
2017-11-18T11:53:55.465Z,11.00
2017-11-18T11:54:55.460Z,10.60
2017-11-18T11:55:55.455Z,10.30
2017-11-18T11:56:55.445Z,10.60
2017-11-18T11:57:55.438Z,10.30
2017-11-18T11:58:55.437Z,10.80
2017-11-18T11:59:55.431Z,11.50
2017-11-18T12:00:55.423Z,10.30
2017-11-18T12:01:55.416Z,10.60
2017-11-18T12:02:55.411Z,10.90
2017-11-18T12:03:55.405Z,10.70
2017-11-18T12:04:55.400Z,10.30
2017-11-18T12:05:55.393Z,9.90
2017-11-18T12:06:55.381Z,10.60
2017-11-18T12:07:55.376Z,10.10
2017-11-18T12:08:55.370Z,10.50
2017-11-18T12:09:55.364Z,10.60
2017-11-18T12:10:55.358Z,9.60
2017-11-18T12:11:55.350Z,10.60
2017-11-18T12:12:55.346Z,10.00
2017-11-18T12:13:55.342Z,9.90
2017-11-18T12:14:55.336Z,9.20
2017-11-18T12:15:55.333Z,9.30
2017-11-18T12:16:55.326Z,9.50
2017-11-18T12:17:55.320Z,9.10
2017-11-18T12:18:55.308Z,9.50
2017-11-18T12:19:55.309Z,8.70
2017-11-18T12:20:55.299Z,9.30
2017-11-18T12:21:55.292Z,8.90
2017-11-18T12:22:55.289Z,8.90
2017-11-18T12:23:55.285Z,8.90
2017-11-18T12:24:55.281Z,9.10
2017-11-18T12:25:55.272Z,9.00
2017-11-18T12:26:55.270Z,9.00
2017-11-18T12:27:55.262Z,9.10
2017-11-18T12:28:55.257Z,8.70
2017-11-18T12:29:55.249Z,8.10
2017-11-18T12:30:55.242Z,8.70
2017-11-18T12:31:55.236Z,8.60
2017-11-18T12:32:55.230Z,8.60
2017-11-18T12:33:55.224Z,8.20
2017-11-18T12:34:55.218Z,7.80
2017-11-18T12:35:55.213Z,8.30
2017-11-18T12:36:55.208Z,8.40
2017-11-18T12:37:55.201Z,8.20
2017-11-18T12:38:55.204Z,8.40
2017-11-18T12:39:55.195Z,8.80
2017-11-18T12:40:55.187Z,8.10
2017-11-18T12:41:55.183Z,8.30
2017-11-18T12:42:55.177Z,8.50
2017-11-18T12:43:55.170Z,8.30
2017-11-18T12:44:55.166Z,8.70
2017-11-18T12:45:55.160Z,8.10
2017-11-18T12:46:55.153Z,8.00
2017-11-18T12:47:55.151Z,8.80
2017-11-18T12:48:55.139Z,8.10
2017-11-18T12:49:55.131Z,7.60
2017-11-18T12:50:55.126Z,7.80
2017-11-18T12:51:55.121Z,8.40
2017-11-18T12:52:55.121Z,8.50
2017-11-18T12:53:55.109Z,8.30
2017-11-18T12:54:55.107Z,7.80
2017-11-18T12:55:55.101Z,8.10
2017-11-18T12:56:55.096Z,8.00
2017-11-18T12:57:55.089Z,7.50
2017-11-18T12:58:55.096Z,8.00